Time;durP1;ratioP1;P1;durP2;ratioP2;P2;SDS_P1;SDS_P2;PMS_P1;PMS_P2;Temp;Humidity;BMP_temperature;BMP_pressure;BME280_temperature;BME280_humidity;BME280_pressure;Samples;Min_cycle;Max_cycle;Signal;HPM_P1;HPM_P2
2021/05/03 00:02:16;;;;;;;1999.90;999.90;;;;;;;4.67;100.00;-18034.78;4921922;29;20470;-29
2021/05/03 00:05:03;;;;;;;1999.90;999.90;;;;;;;4.65;100.00;-18034.25;4921120;29;20496;-29
2021/05/03 00:08:07;;;;;;;1999.90;999.90;;;;;;;4.71;100.00;-18035.97;4921437;29;20453;-29
2021/05/03 00:10:53;;;;;;;1999.90;999.90;;;;;;;4.63;100.00;-18033.69;4925909;29;20548;-28
2021/05/03 00:13:40;;;;;;;1999.90;999.90;;;;;;;4.59;100.00;-18032.75;4924998;29;20441;-31
2021/05/03 00:16:27;;;;;;;1999.90;999.90;;;;;;;4.58;100.00;-18032.50;4921993;29;20461;-30
2021/05/03 00:19:13;;;;;;;1999.90;999.90;;;;;;;4.59;100.00;-18032.75;4920865;29;20745;-30
2021/05/03 00:21:59;;;;;;;1999.90;999.90;;;;;;;4.57;100.00;-18032.22;4920825;29;20815;-30
2021/05/03 00:24:45;;;;;;;1999.90;999.90;;;;;;;4.55;100.00;-18031.56;4923836;29;20489;-30
2021/05/03 00:27:31;;;;;;;1999.90;999.90;;;;;;;4.48;100.00;-18029.81;4921634;29;20449;-31
2021/05/03 00:30:18;;;;;;;1999.90;999.90;;;;;;;4.49;100.00;-18030.22;4922070;29;20453;-30
2021/05/03 00:33:05;;;;;;;1999.90;999.90;;;;;;;4.45;100.00;-18029.00;4921195;29;20480;-30
2021/05/03 00:35:51;;;;;;;1999.90;999.90;;;;;;;4.45;100.00;-18029.13;4921364;29;20457;-30
2021/05/03 00:38:37;;;;;;;1999.90;999.90;;;;;;;4.48;100.00;-18029.81;4921009;29;20474;-30
2021/05/03 00:41:24;;;;;;;1999.90;999.90;;;;;;;4.35;100.00;-18026.44;4923260;29;20457;-30
2021/05/03 00:44:09;;;;;;;1999.90;999.90;;;;;;;4.32;100.00;-18025.66;4921134;29;20493;-30
2021/05/03 00:46:58;;;;;;;1999.90;999.90;;;;;;;4.31;100.00;-18025.38;4921076;29;20452;-31
2021/05/03 00:49:44;;;;;;;1999.90;999.90;;;;;;;4.27;100.00;-18024.28;4920811;29;20457;-30
2021/05/03 00:52:30;;;;;;;1999.90;999.90;;;;;;;4.32;100.00;-18025.66;4921212;29;20457;-30
2021/05/03 00:55:17;;;;;;;1999.90;999.90;;;;;;;4.36;100.00;-18026.72;4922454;29;20997;-30
2021/05/03 00:58:04;;;;;;;1999.90;999.90;;;;;;;4.29;100.00;-18024.84;4920927;29;20546;-30
2021/05/03 01:00:50;;;;;;;1999.90;999.90;;;;;;;4.25;100.00;-18023.75;4920805;29;20465;-30
2021/05/03 01:03:36;;;;;;;1999.90;999.90;;;;;;;4.36;100.00;-18026.59;4920546;29;20556;-30
2021/05/03 01:06:24;;;;;;;1999.90;999.90;;;;;;;4.31;100.00;-18025.38;4921497;29;20450;-30
2021/05/03 01:09:10;;;;;;;1999.90;999.90;;;;;;;4.25;100.00;-18023.75;4920534;29;20488;-30
2021/05/03 01:11:56;;;;;;;1999.90;999.90;;;;;;;4.27;100.00;-18024.28;4923498;29;20453;-28
2021/05/03 01:14:43;;;;;;;1999.90;999.90;;;;;;;4.14;100.00;-18020.94;4921407;29;20454;-29
2021/05/03 01:17:30;;;;;;;1999.90;999.90;;;;;;;4.28;100.00;-18024.44;4920669;29;20454;-29
2021/05/03 01:20:18;;;;;;;1999.90;999.90;;;;;;;4.12;100.00;-18020.28;4921255;29;20884;-29
2021/05/03 01:23:06;;;;;;;1999.90;999.90;;;;;;;4.30;100.00;-18024.97;4921910;29;20544;-29
2021/05/03 01:25:52;;;;;;;1999.90;999.90;;;;;;;4.25;100.00;-18023.75;4920688;29;20473;-29
2021/05/03 01:28:38;;;;;;;1999.90;999.90;;;;;;;4.31;100.00;-18025.38;4920458;29;20906;-29
2021/05/03 01:31:24;;;;;;;1999.90;999.90;;;;;;;4.37;100.00;-18026.84;4920894;29;20452;-29
2021/05/03 01:34:10;;;;;;;1999.90;999.90;;;;;;;4.31;100.00;-18025.38;4920888;29;20466;-28
2021/05/03 01:36:56;;;;;;;1999.90;999.90;;;;;;;4.32;100.00;-18025.50;4920201;29;20453;-28
2021/05/03 01:39:43;;;;;;;1999.90;999.90;;;;;;;4.47;100.00;-18029.66;4921781;29;20560;-28
2021/05/03 01:42:28;;;;;;;1999.90;999.90;;;;;;;4.49;100.00;-18030.06;4922104;29;20448;-29
2021/05/03 01:45:17;;;;;;;1999.90;999.90;;;;;;;4.49;100.00;-18030.06;4923382;29;21007;-28
2021/05/03 01:48:04;;;;;;;1999.90;999.90;;;;;;;4.41;100.00;-18028.06;4924647;29;20578;-29
2021/05/03 01:50:51;;;;;;;1999.90;999.90;;;;;;;4.39;100.00;-18027.53;4923516;29;20825;-28
2021/05/03 01:53:37;;;;;;;1999.90;999.90;;;;;;;4.32;100.00;-18025.50;4924475;29;20445;-29
2021/05/03 01:56:25;;;;;;;1999.90;999.90;;;;;;;3.94;100.00;-18015.56;4923455;29;20453;-29
2021/05/03 01:59:11;;;;;;;1999.90;999.90;;;;;;;4.23;100.00;-18023.22;4923146;29;20630;-29
2021/05/03 02:01:59;;;;;;;1999.90;999.90;;;;;;;4.32;100.00;-18025.50;4927318;29;20557;-29
2021/05/03 02:04:45;;;;;;;1999.90;999.90;;;;;;;4.32;100.00;-18025.50;4923056;29;20540;-29
2021/05/03 02:07:31;;;;;;;1999.90;999.90;;;;;;;4.34;100.00;-18026.03;4924773;29;20457;-29
2021/05/03 02:10:16;;;;;;;1999.90;999.90;;;;;;;4.29;100.00;-18024.84;4923618;29;20642;-29
2021/05/03 02:13:03;;;;;;;1999.90;999.90;;;;;;;4.33;100.00;-18025.91;4923339;29;20452;-29
2021/05/03 02:15:49;;;;;;;1999.90;999.90;;;;;;;4.20;100.00;-18022.28;4923209;29;20763;-29
2021/05/03 02:18:35;;;;;;;1999.90;999.90;;;;;;;4.28;100.00;-18024.44;4923417;29;20453;-29
2021/05/03 02:21:21;;;;;;;1999.90;999.90;;;;;;;4.31;100.00;-18025.38;4925325;29;20545;-29
2021/05/03 02:24:14;;;;;;;1999.90;999.90;;;;;;;4.41;100.00;-18028.06;4923670;29;20485;-29
2021/05/03 02:27:00;;;;;;;1999.90;999.90;;;;;;;4.45;100.00;-18029.13;4923186;29;20465;-29
2021/05/03 02:29:48;;;;;;;1999.90;999.90;;;;;;;4.35;100.00;-18026.31;4923420;29;20537;-29
2021/05/03 02:32:35;;;;;;;1999.90;999.90;;;;;;;4.49;100.00;-18030.22;4923042;29;20456;-29
2021/05/03 02:35:28;;;;;;;1999.90;999.90;;;;;;;4.51;100.00;-18030.63;4922618;29;20445;-29
2021/05/03 02:38:14;;;;;;;1999.90;999.90;;;;;;;4.50;100.00;-18030.47;4923559;29;20581;-29
2021/05/03 02:41:00;;;;;;;1999.90;999.90;;;;;;;4.51;100.00;-18030.63;4923645;29;20562;-29
2021/05/03 02:43:46;;;;;;;1999.90;999.90;;;;;;;4.45;100.00;-18029.00;4922992;29;20903;-29
2021/05/03 02:46:37;;;;;;;1999.90;999.90;;;;;;;4.45;100.00;-18029.00;4924331;29;20620;-29
2021/05/03 02:49:23;;;;;;;1999.90;999.90;;;;;;;4.41;100.00;-18028.06;4922889;29;20932;-29
2021/05/03 02:52:09;;;;;;;1999.90;999.90;;;;;;;4.30;100.00;-18024.97;4923471;29;20449;-29
2021/05/03 02:54:55;;;;;;;1999.90;999.90;;;;;;;4.28;100.00;-18024.44;4922247;29;20465;-29
2021/05/03 02:57:44;;;;;;;1999.90;999.90;;;;;;;4.42;100.00;-18028.19;4922982;29;20517;-30
2021/05/03 03:00:32;;;;;;;1999.90;999.90;;;;;;;4.36;100.00;-18026.72;4923843;29;20449;-29
2021/05/03 03:03:19;;;;;;;1999.90;999.90;;;;;;;4.17;100.00;-18021.63;4922215;29;20441;-29
2021/05/03 03:06:05;;;;;;;1999.90;999.90;;;;;;;4.27;100.00;-18024.28;4925526;29;20800;-29
2021/05/03 03:08:51;;;;;;;1999.90;999.90;;;;;;;4.23;100.00;-18023.22;4921798;29;20588;-29
2021/05/03 03:11:37;;;;;;;1999.90;999.90;;;;;;;4.19;100.00;-18022.00;4922095;29;20609;-29
2021/05/03 03:14:23;;;;;;;1999.90;999.90;;;;;;;4.12;100.00;-18020.28;4923471;29;20540;-29
2021/05/03 03:17:09;;;;;;;1999.90;999.90;;;;;;;4.08;100.00;-18019.31;4922061;29;20883;-29
2021/05/03 03:19:56;;;;;;;1999.90;999.90;;;;;;;4.15;100.00;-18021.06;4922010;29;20880;-29
2021/05/03 03:22:45;;;;;;;1999.90;999.90;;;;;;;4.24;100.00;-18023.34;4923540;29;20451;-28
2021/05/03 03:25:31;;;;;;;1999.90;999.90;;;;;;;4.31;100.00;-18025.25;4922269;29;20488;-28
2021/05/03 03:28:17;;;;;;;1999.90;999.90;;;;;;;4.28;100.00;-18024.44;4921734;29;20456;-28
2021/05/03 03:31:06;;;;;;;1999.90;999.90;;;;;;;4.44;100.00;-18028.88;4925129;29;20451;-28
2021/05/03 03:33:51;;;;;;;1999.90;999.90;;;;;;;4.56;100.00;-18031.97;4921477;29;20449;-29
2021/05/03 03:36:38;;;;;;;1999.90;999.90;;;;;;;4.54;100.00;-18031.28;4923021;29;20864;-28
2021/05/03 03:39:23;;;;;;;1999.90;999.90;;;;;;;4.48;100.00;-18029.81;4923709;29;20453;-29
2021/05/03 03:42:09;;;;;;;1999.90;999.90;;;;;;;4.48;100.00;-18029.81;4921692;29;20477;-28
2021/05/03 03:44:56;;;;;;;1999.90;999.90;;;;;;;4.47;100.00;-18029.66;4921808;29;20493;-28
2021/05/03 03:47:44;;;;;;;1999.90;999.90;;;;;;;4.35;100.00;-18026.31;4921644;29;20450;-29
2021/05/03 03:50:30;;;;;;;1999.90;999.90;;;;;;;4.52;100.00;-18030.75;4926460;29;20453;-28
2021/05/03 03:53:17;;;;;;;1999.90;999.90;;;;;;;4.64;100.00;-18033.97;4922079;29;20452;-29
2021/05/03 03:56:02;;;;;;;1999.90;999.90;;;;;;;4.29;100.00;-18024.84;4922141;29;20742;-29
2021/05/03 03:58:49;;;;;;;1999.90;999.90;;;;;;;4.90;100.00;-18040.81;4921485;29;20546;-28
2021/05/03 04:01:37;;;;;;;1999.90;999.90;;;;;;;5.10;100.00;-18046.19;4920893;29;20904;-29
2021/05/03 04:04:26;;;;;;;1999.90;999.90;;;;;;;5.28;100.00;-18050.88;4922565;29;20489;-29
2021/05/03 04:07:16;;;;;;;1999.90;999.90;;;;;;;5.36;100.00;-18053.03;4920862;29;20473;-28
2021/05/03 04:10:13;;;;;;;1999.90;999.90;;;;;;;5.46;100.00;-18055.72;4922949;29;20481;-28
2021/05/03 04:13:19;;;;;;;1999.90;999.90;;;;;;;5.29;100.00;-18051.16;4921307;29;20453;-29
2021/05/03 04:22:59;;;;;;;1999.90;999.90;;;;;;;5.15;100.00;-18047.66;4881769;29;20511;-28
2021/05/03 04:25:50;;;;;;;1999.90;999.90;;;;;;;5.05;100.00;-18044.97;4883663;29;20238;-29
2021/05/03 04:28:35;;;;;;;1999.90;999.90;;;;;;;4.92;100.00;-18041.50;4922448;29;20456;-29
2021/05/03 04:31:22;;;;;;;1999.90;999.90;;;;;;;5.12;100.00;-18046.88;4920524;29;20457;-29
2021/05/03 04:34:08;;;;;;;1999.90;999.90;;;;;;;5.39;100.00;-18053.97;4920641;29;20300;-29
2021/05/03 04:36:54;;;;;;;1999.90;999.90;;;;;;;5.27;100.00;-18050.63;4920381;29;20473;-29
2021/05/03 04:39:40;;;;;;;1999.90;999.90;;;;;;;5.09;100.00;-18045.91;4920700;29;20457;-29
2021/05/03 04:42:26;;;;;;;1999.90;999.90;;;;;;;5.43;100.00;-18054.91;4920351;29;20205;-29
2021/05/03 04:45:15;;;;;;;1999.90;999.90;;;;;;;5.40;100.00;-18054.09;4919722;29;20288;-28
2021/05/03 04:48:01;;;;;;;1999.90;999.90;;;;;;;5.13;100.00;-18047.13;4923287;29;20683;-29
2021/05/03 04:50:47;;;;;;;1999.90;999.90;;;;;;;5.33;100.00;-18052.22;4920185;29;20521;-28
2021/05/03 04:53:33;;;;;;;1999.90;999.90;;;;;;;5.28;100.00;-18050.88;4920495;29;20280;-29
2021/05/03 04:56:19;;;;;;;1999.90;999.90;;;;;;;4.96;100.00;-18042.56;4921156;29;20201;-28
2021/05/03 04:59:07;;;;;;;1999.90;999.90;;;;;;;5.05;100.00;-18044.84;4921873;29;20201;-29
2021/05/03 05:01:52;;;;;;;1999.90;999.90;;;;;;;4.73;100.00;-18036.38;4921191;29;20453;-28
2021/05/03 05:04:39;;;;;;;1999.90;999.90;;;;;;;4.90;100.00;-18040.94;4920789;29;20381;-29
2021/05/03 05:07:24;;;;;;;1999.90;999.90;;;;;;;5.26;100.00;-18050.47;4921655;29;20339;-29
2021/05/03 05:10:12;;;;;;;1999.90;999.90;;;;;;;5.09;100.00;-18046.06;4921723;29;20308;-29
2021/05/03 05:13:01;;;;;;;1999.90;999.90;;;;;;;5.32;100.00;-18051.97;4921883;29;20210;-29
2021/05/03 05:15:47;;;;;;;1999.90;999.90;;;;;;;5.22;100.00;-18049.28;4922010;29;20488;-31
2021/05/03 05:18:34;;;;;;;1999.90;999.90;;;;;;;4.79;100.00;-18038.13;4924498;29;20721;-28
2021/05/03 05:21:23;;;;;;;1999.90;999.90;;;;;;;5.14;100.00;-18047.25;4926125;29;20282;-28
2021/05/03 05:24:10;;;;;;;1999.90;999.90;;;;;;;5.65;100.00;-18060.69;4926401;29;20224;-29
2021/05/03 05:26:56;;;;;;;1999.90;999.90;;;;;;;5.86;100.00;-18066.31;4924307;29;20205;-28
2021/05/03 05:29:42;;;;;;;1999.90;999.90;;;;;;;5.84;100.00;-18065.91;4923933;29;20295;-28
2021/05/03 05:32:32;;;;;;;1999.90;999.90;;;;;;;5.75;100.00;-18063.38;4922868;29;20493;-29
2021/05/03 05:35:19;;;;;;;1999.90;999.90;;;;;;;5.99;100.00;-18069.69;4923233;29;20265;-31
2021/05/03 05:38:05;;;;;;;1999.90;999.90;;;;;;;6.75;100.00;-18089.81;4922141;29;20205;-29
2021/05/03 05:40:50;;;;;;;1999.90;999.90;;;;;;;7.05;100.00;-18097.84;4923389;29;20209;-29
2021/05/03 05:43:39;;;;;;;1999.90;999.90;;;;;;;7.02;100.00;-18097.03;4927506;29;20318;-29
2021/05/03 05:46:25;;;;;;;1999.90;999.90;;;;;;;6.82;100.00;-18091.69;4923726;29;20209;-29
2021/05/03 05:49:11;;;;;;;1999.90;999.90;;;;;;;6.73;100.00;-18089.41;4923719;29;20669;-29
2021/05/03 05:51:57;;;;;;;1999.90;999.90;;;;;;;7.39;100.00;-18106.69;4923371;29;20302;-29
2021/05/03 05:54:43;;;;;;;1999.90;999.90;;;;;;;7.89;100.00;-18120.09;4923650;29;20612;-29
2021/05/03 05:57:30;;;;;;;1999.90;999.90;;;;;;;8.44;100.00;-18134.44;4922952;29;20294;-29
2021/05/03 06:00:20;;;;;;;1999.90;999.90;;;;;;;8.54;100.00;-18137.13;4922297;29;20200;-29
2021/05/03 06:03:08;;;;;;;1999.90;999.90;;;;;;;8.80;100.00;-18144.06;4924343;29;20615;-29
2021/05/03 06:05:57;;;;;;;1999.90;999.90;;;;;;;8.97;100.00;-18148.63;4924206;29;20225;-29
2021/05/03 06:08:42;;;;;;;1999.90;999.90;;;;;;;8.87;100.00;-18145.81;4922859;29;20386;-29
2021/05/03 06:11:28;;;;;;;1999.90;999.90;;;;;;;8.83;100.00;-18144.75;4922058;29;20297;-29
2021/05/03 06:14:14;;;;;;;1999.90;999.90;;;;;;;10.01;100.00;-18175.94;4922602;29;20205;-29
2021/05/03 06:17:03;;;;;;;1999.90;999.90;;;;;;;9.25;100.00;-18155.84;4922473;29;20205;-29
2021/05/03 06:19:49;;;;;;;1999.90;999.90;;;;;;;10.23;100.00;-18181.69;4923138;29;20281;-29
2021/05/03 06:22:36;;;;;;;1999.90;999.90;;;;;;;8.93;100.00;-18147.44;4924849;29;20755;-29
2021/05/03 06:25:23;;;;;;;1999.90;999.90;;;;;;;8.98;100.00;-18148.75;4922594;29;20569;-29
2021/05/03 06:28:12;;;;;;;1999.90;999.90;;;;;;;11.20;100.00;-18207.22;4922803;29;20209;-29
2021/05/03 06:30:58;;;;;;;1999.90;999.90;;;;;;;11.60;87.31;-18217.78;4924383;29;20209;-30
2021/05/03 06:33:44;;;;;;;1999.90;999.90;;;;;;;10.73;92.85;-18194.78;4929836;29;20208;-30
2021/05/03 06:36:29;;;;;;;1999.90;999.90;;;;;;;9.25;100.00;-18156.00;4924685;29;20456;-29
2021/05/03 06:39:18;;;;;;;1999.90;999.90;;;;;;;9.36;100.00;-18158.81;4924807;29;20216;-29
2021/05/03 06:42:07;;;;;;;1999.90;999.90;;;;;;;10.01;100.00;-18176.06;4930864;29;20208;-29
2021/05/03 06:44:54;;;;;;;1999.90;999.90;;;;;;;10.29;100.00;-18183.41;4941508;29;20251;-29
2021/05/03 06:47:44;;;;;;;1999.90;999.90;;;;;;;10.23;100.00;-18181.69;4941398;29;20223;-29
2021/05/03 06:50:33;;;;;;;1999.90;999.90;;;;;;;11.19;92.21;-18206.94;4943657;29;20207;-29
2021/05/03 06:53:19;;;;;;;1999.90;999.90;;;;;;;10.99;90.86;-18201.75;4944090;29;20202;-29
2021/05/03 06:56:06;;;;;;;1999.90;999.90;;;;;;;10.94;89.85;-18200.53;4940963;29;20201;-29
2021/05/03 06:58:52;;;;;;;1999.90;999.90;;;;;;;10.59;90.21;-18191.31;4941111;29;20201;-29
2021/05/03 07:01:37;;;;;;;1999.90;999.90;;;;;;;11.14;90.47;-18205.63;4940953;29;20232;-29
2021/05/03 07:04:23;;;;;;;1999.90;999.90;;;;;;;12.39;86.08;-18238.59;4942251;29;20441;-30
2021/05/03 07:07:13;;;;;;;1999.90;999.90;;;;;;;13.02;77.59;-18255.28;4941608;29;20204;-29
2021/05/03 07:09:59;;;;;;;1999.90;999.90;;;;;;;11.70;82.03;-18220.56;4940887;29;20245;-29
2021/05/03 07:12:48;;;;;;;1999.90;999.90;;;;;;;10.98;87.94;-18201.47;4942577;29;20227;-29
2021/05/03 07:15:36;;;;;;;1999.90;999.90;;;;;;;11.24;88.54;-18208.41;4941653;29;20222;-29
2021/05/03 07:18:26;;;;;;;1999.90;999.90;;;;;;;10.59;89.69;-18191.19;4925209;29;20209;-30
2021/05/03 07:21:19;;;;;;;1999.90;999.90;;;;;;;12.18;81.83;-18233.13;4921838;29;20211;-30
2021/05/03 07:24:10;;;;;;;1999.90;999.90;;;;;;;12.65;75.39;-18245.41;4921846;29;20205;-29
2021/05/03 07:26:56;;;;;;;1999.90;999.90;;;;;;;11.62;78.17;-18218.31;4921835;29;20198;-29
2021/05/03 07:29:43;;;;;;;1999.90;999.90;;;;;;;13.82;71.54;-18276.09;4932794;29;20260;-29
2021/05/03 07:32:33;;;;;;;1999.90;999.90;;;;;;;13.20;70.14;-18259.84;4940159;29;20255;-29
2021/05/03 07:35:22;;;;;;;1999.90;999.90;;;;;;;11.86;75.26;-18224.72;4939941;29;20228;-29
2021/05/03 07:38:07;;;;;;;1999.90;999.90;;;;;;;12.45;74.18;-18240.06;4939913;29;20255;-29
2021/05/03 07:40:53;;;;;;;1999.90;999.90;;;;;;;11.59;74.17;-18217.63;4940654;29;20351;-29
2021/05/03 07:43:39;;;;;;;1999.90;999.90;;;;;;;12.27;73.10;-18235.41;4940526;29;20356;-29
2021/05/03 07:46:29;;;;;;;1999.90;999.90;;;;;;;11.52;73.24;-18215.63;4941111;29;20236;-30
2021/05/03 07:49:16;;;;;;;1999.90;999.90;;;;;;;12.63;71.23;-18245.00;4949010;29;20307;-29
2021/05/03 07:52:06;;;;;;;1999.90;999.90;;;;;;;13.30;69.96;-18262.50;4942283;29;20224;-29
2021/05/03 07:54:52;;;;;;;1999.90;999.90;;;;;;;13.40;70.93;-18265.31;4940215;29;20288;-29
2021/05/03 07:57:38;;;;;;;1999.90;999.90;;;;;;;13.48;66.48;-18267.16;4940657;29;20203;-29
2021/05/03 08:00:24;;;;;;;1999.90;999.90;;;;;;;12.71;67.47;-18247.16;4939764;29;20204;-29
2021/05/03 08:03:16;;;;;;;1999.90;999.90;;;;;;;12.75;72.42;-18248.09;4937596;29;20328;-29
2021/05/03 08:06:04;;;;;;;1999.90;999.90;;;;;;;12.86;69.93;-18251.03;4940081;29;20236;-29
2021/05/03 08:08:50;;;;;;;1999.90;999.90;;;;;;;12.09;74.66;-18230.72;4940348;29;20284;-29
2021/05/03 08:11:44;;;;;;;1999.90;999.90;;;;;;;12.39;72.37;-18238.59;4940693;29;20213;-29
2021/05/03 08:14:31;;;;;;;1999.90;999.90;;;;;;;12.47;71.97;-18240.75;4941520;29;20493;-29
2021/05/03 08:17:18;;;;;;;1999.90;999.90;;;;;;;11.95;68.38;-18227.13;4939919;29;20675;-29
2021/05/03 08:20:07;;;;;;;1999.90;999.90;;;;;;;12.56;69.47;-18243.00;4939810;29;20537;-29
2021/05/03 08:22:54;;;;;;;1999.90;999.90;;;;;;;12.86;66.65;-18250.88;4939634;29;20204;-29
2021/05/03 08:25:40;;;;;;;1999.90;999.90;;;;;;;12.51;66.01;-18241.81;4939498;29;20635;-29
2021/05/03 08:28:33;;;;;;;1999.90;999.90;;;;;;;12.39;62.88;-18238.75;4942018;29;20359;-29
2021/05/03 08:31:19;;;;;;;1999.90;999.90;;;;;;;12.72;61.49;-18247.41;4939481;29;20205;-30
2021/05/03 08:34:05;;;;;;;1999.90;999.90;;;;;;;12.43;61.83;-18239.81;4939016;29;20205;-29
2021/05/03 08:36:54;;;;;;;1999.90;999.90;;;;;;;12.54;62.91;-18242.47;4939696;29;20450;-29
2021/05/03 08:39:40;;;;;;;1999.90;999.90;;;;;;;13.13;62.14;-18257.97;4939607;29;20607;-29
2021/05/03 08:42:27;;;;;;;1999.90;999.90;;;;;;;13.57;58.91;-18269.72;4939429;29;20208;-29
2021/05/03 08:45:14;;;;;;;1999.90;999.90;;;;;;;13.68;57.22;-18272.50;4939493;29;20380;-30
2021/05/03 08:48:07;;;;;;;1999.90;999.90;;;;;;;14.74;54.08;-18300.50;4939662;29;20320;-30
2021/05/03 08:51:00;;;;;;;1999.90;999.90;;;;;;;14.37;53.84;-18290.63;4939721;29;20279;-30
2021/05/03 08:54:00;;;;;;;1999.90;999.90;;;;;;;14.18;53.42;-18285.56;4943307;29;20570;-29
2021/05/03 08:56:48;;;;;;;1999.90;999.90;;;;;;;14.18;52.92;-18285.56;4944144;29;20647;-30
2021/05/03 08:59:38;;;;;;;1999.90;999.90;;;;;;;14.39;54.93;-18291.28;4944340;29;20204;-29
2021/05/03 09:02:30;;;;;;;1999.90;999.90;;;;;;;15.07;52.77;-18309.16;4943951;29;20284;-29
2021/05/03 09:05:16;;;;;;;1999.90;999.90;;;;;;;14.57;52.25;-18295.84;4943896;29;20675;-30
2021/05/03 09:08:03;;;;;;;1999.90;999.90;;;;;;;14.51;54.31;-18294.25;4943544;29;20597;-30
2021/05/03 09:10:51;;;;;;;1999.90;999.90;;;;;;;15.01;53.87;-18307.41;4943088;29;20201;-29
2021/05/03 09:13:38;;;;;;;1999.90;999.90;;;;;;;15.07;51.95;-18309.03;4943867;29;20284;-29
2021/05/03 09:16:29;;;;;;;1999.90;999.90;;;;;;;14.95;52.93;-18305.81;4942927;29;20205;-30
2021/05/03 09:19:18;;;;;;;1999.90;999.90;;;;;;;15.12;52.46;-18310.34;4943093;29;20208;-29
2021/05/03 09:22:10;;;;;;;1999.90;999.90;;;;;;;15.12;51.95;-18310.34;4943258;29;20208;-30
2021/05/03 09:25:19;;;;;;;1999.90;999.90;;;;;;;15.64;50.41;-18323.94;4943081;29;20276;-29
2021/05/03 09:28:13;;;;;;;1999.90;999.90;;;;;;;15.59;49.63;-18322.63;4943132;29;20292;-30
2021/05/03 09:31:00;;;;;;;1999.90;999.90;;;;;;;14.67;49.10;-18298.63;4942940;29;20363;-30
2021/05/03 09:33:46;;;;;;;1999.90;999.90;;;;;;;14.71;48.88;-18299.56;4942953;29;20216;-29
2021/05/03 09:36:32;;;;;;;1999.90;999.90;;;;;;;15.31;47.92;-18315.41;4943652;29;20260;-29
2021/05/03 09:39:30;;;;;;;1999.90;999.90;;;;;;;16.00;47.41;-18333.53;4923952;29;20212;-29
2021/05/03 09:42:18;;;;;;;1999.90;999.90;;;;;;;16.02;44.84;-18334.06;4923875;29;20210;-30
2021/05/03 09:45:09;;;;;;;1999.90;999.90;;;;;;;15.28;45.21;-18314.47;4924276;29;20273;-29
2021/05/03 09:47:56;;;;;;;1999.90;999.90;;;;;;;14.62;45.21;-18297.31;4924157;29;20254;-30
2021/05/03 09:50:42;;;;;;;1999.90;999.90;;;;;;;15.81;44.67;-18328.47;4923976;29;20208;-30
2021/05/03 09:53:29;;;;;;;1999.90;999.90;;;;;;;16.05;42.74;-18334.84;4923493;29;20591;-30
2021/05/03 09:56:15;;;;;;;1999.90;999.90;;;;;;;16.06;41.99;-18335.13;4923352;29;20268;-30
2021/05/03 09:59:03;;;;;;;1999.90;999.90;;;;;;;15.37;42.06;-18316.88;4922801;29;20286;-30
2021/05/03 10:02:01;;;;;;;1999.90;999.90;;;;;;;15.71;43.61;-18325.81;4922881;29;20205;-29
2021/05/03 10:04:56;;;;;;;1999.90;999.90;;;;;;;15.55;43.05;-18321.53;4922551;29;20503;-30
2021/05/03 10:07:51;;;;;;;1999.90;999.90;;;;;;;14.92;43.96;-18305.03;4923278;29;20640;-29
2021/05/03 10:10:40;;;;;;;1999.90;999.90;;;;;;;15.29;43.22;-18314.88;4922760;29;20245;-29
2021/05/03 10:13:28;;;;;;;1999.90;999.90;;;;;;;15.68;42.20;-18325.00;4922444;29;20209;-29
2021/05/03 10:16:15;;;;;;;1999.90;999.90;;;;;;;16.14;42.35;-18337.25;4935730;29;20224;-29
2021/05/03 10:19:04;;;;;;;1999.90;999.90;;;;;;;15.59;42.11;-18322.63;4941872;29;20200;-29
2021/05/03 10:21:50;;;;;;;1999.90;999.90;;;;;;;16.93;40.78;-18357.75;4942381;29;20204;-29
2021/05/03 10:24:37;;;;;;;1999.90;999.90;;;;;;;16.91;39.38;-18357.22;4942078;29;20251;-29
2021/05/03 10:27:24;;;;;;;1999.90;999.90;;;;;;;16.74;39.56;-18352.94;4941895;29;20225;-29
2021/05/03 10:30:14;;;;;;;1999.90;999.90;;;;;;;16.50;40.80;-18346.69;4942054;29;20211;-29
2021/05/03 10:33:03;;;;;;;1999.90;999.90;;;;;;;16.41;42.73;-18344.16;4941578;29;20208;-29
2021/05/03 10:35:57;;;;;;;1999.90;999.90;;;;;;;16.33;39.75;-18342.16;4935472;29;20245;-30
2021/05/03 10:38:49;;;;;;;1999.90;999.90;;;;;;;15.46;40.47;-18319.41;4935255;29;20342;-29
2021/05/03 10:41:37;;;;;;;1999.90;999.90;;;;;;;15.69;41.19;-18325.28;4938372;29;20638;-29
2021/05/03 10:44:24;;;;;;;1999.90;999.90;;;;;;;15.42;41.51;-18318.34;4928151;29;20229;-29
2021/05/03 10:47:35;;;;;;;1999.90;999.90;;;;;;;15.41;41.52;-18318.06;4922507;29;20349;-29
2021/05/03 10:50:39;;;;;;;1999.90;999.90;;;;;;;15.25;41.35;-18313.69;4922756;29;20197;-29
2021/05/03 10:53:29;;;;;;;1999.90;999.90;;;;;;;15.55;40.34;-18321.53;4924088;29;20211;-29
2021/05/03 10:56:16;;;;;;;1999.90;999.90;;;;;;;15.94;40.02;-18331.94;4922694;29;20214;-29
2021/05/03 10:59:09;;;;;;;1999.90;999.90;;;;;;;17.35;39.23;-18368.91;4922579;29;20600;-29
2021/05/03 11:02:13;;;;;;;1999.90;999.90;;;;;;;16.30;38.41;-18341.25;4922700;29;20263;-29
2021/05/03 11:05:26;;;;;;;1999.90;999.90;;;;;;;16.42;37.68;-18344.44;4928979;29;20228;-29
2021/05/03 11:08:21;;;;;;;1999.90;999.90;;;;;;;17.28;38.35;-18367.03;4930426;29;20222;-29
2021/05/03 11:11:12;;;;;;;1999.90;999.90;;;;;;;17.28;39.50;-18366.91;4941270;29;20209;-29
2021/05/03 11:14:13;;;;;;;1999.90;999.90;;;;;;;18.19;38.67;-18390.97;4941835;29;20205;-29
2021/05/03 11:17:08;;;;;;;1999.90;999.90;;;;;;;16.76;37.66;-18353.34;4937869;29;20732;-29
2021/05/03 11:20:06;;;;;;;1999.90;999.90;;;;;;;17.40;39.15;-18370.22;4924487;29;20205;-29
2021/05/03 11:23:01;;;;;;;1999.90;999.90;;;;;;;17.19;38.46;-18364.78;4927213;29;20206;-29
2021/05/03 11:25:47;;;;;;;1999.90;999.90;;;;;;;17.23;38.77;-18365.72;4936789;29;20233;-29
2021/05/03 11:28:35;;;;;;;1999.90;999.90;;;;;;;17.10;41.00;-18362.25;4936402;29;20293;-29
2021/05/03 11:31:24;;;;;;;1999.90;999.90;;;;;;;16.49;40.48;-18346.28;4938256;29;20211;-29
2021/05/03 11:34:18;;;;;;;1999.90;999.90;;;;;;;16.57;40.00;-18348.44;4926766;29;20210;-29
2021/05/03 11:37:10;;;;;;;1999.90;999.90;;;;;;;16.44;41.37;-18344.97;4923102;29;20198;-29
2021/05/03 11:40:02;;;;;;;1999.90;999.90;;;;;;;16.49;40.38;-18346.28;4923034;29;20359;-29
2021/05/03 11:45:51;;;;;;;1999.90;999.90;;;;;;;16.60;39.09;-18349.22;4922412;29;20233;-29
2021/05/03 11:48:37;;;;;;;1999.90;999.90;;;;;;;16.75;41.33;-18353.09;4932844;29;20541;-29
2021/05/03 11:51:26;;;;;;;1999.90;999.90;;;;;;;16.98;40.57;-18359.06;4941194;29;20270;-29
2021/05/03 11:54:28;;;;;;;1999.90;999.90;;;;;;;16.54;39.82;-18347.63;4942717;29;20623;-30
2021/05/03 11:57:19;;;;;;;1999.90;999.90;;;;;;;15.62;41.00;-18323.41;4940705;29;20362;-29
2021/05/03 12:00:07;;;;;;;1999.90;999.90;;;;;;;16.27;41.67;-18340.44;4921350;29;20206;-29
2021/05/03 12:03:07;;;;;;;1999.90;999.90;;;;;;;17.56;39.21;-18374.47;4921427;29;20209;-29
2021/05/03 12:05:53;;;;;;;1999.90;999.90;;;;;;;17.84;39.01;-18381.78;4923841;29;20324;-29
2021/05/03 12:08:42;;;;;;;1999.90;999.90;;;;;;;19.48;37.92;-18424.53;4921185;29;20305;-29
2021/05/03 12:11:31;;;;;;;1999.90;999.90;;;;;;;16.46;40.17;-18345.50;4925683;29;20316;-29
2021/05/03 12:14:17;;;;;;;1999.90;999.90;;;;;;;17.84;37.88;-18381.78;4921741;29;20201;-29
2021/05/03 12:17:26;;;;;;;1999.90;999.90;;;;;;;18.17;38.50;-18390.44;4922447;29;20202;-29
2021/05/03 12:20:16;;;;;;;1999.90;999.90;;;;;;;18.09;38.73;-18388.31;4922333;29;20213;-29
2021/05/03 12:23:06;;;;;;;1999.90;999.90;;;;;;;17.75;37.62;-18379.28;4923191;29;20209;-29
2021/05/03 12:25:54;;;;;;;1999.90;999.90;;;;;;;17.13;38.50;-18363.06;4921875;29;20512;-30
2021/05/03 12:28:40;;;;;;;1999.90;999.90;;;;;;;17.12;40.06;-18362.91;4921931;29;20203;-29
2021/05/03 12:31:25;;;;;;;1999.90;999.90;;;;;;;16.39;41.13;-18343.63;4920471;29;20373;-29